createdAt,value
2019-01-09T00:00:49.493Z,4.00
2019-01-09T00:01:49.465Z,4.00
2019-01-09T00:02:49.446Z,4.00
2019-01-09T00:03:49.429Z,4.00
2019-01-09T00:04:49.397Z,4.00
2019-01-09T00:05:49.384Z,4.00
2019-01-09T00:06:49.343Z,4.00
2019-01-09T00:07:49.319Z,4.00
2019-01-09T00:08:49.287Z,4.00
2019-01-09T00:09:49.268Z,4.00
2019-01-09T00:10:49.243Z,4.00
2019-01-09T00:11:49.217Z,4.00
2019-01-09T00:12:49.244Z,4.00
2019-01-09T00:13:49.160Z,4.00
2019-01-09T00:14:49.135Z,4.00
2019-01-09T00:15:49.108Z,4.00
2019-01-09T00:16:49.083Z,4.00
2019-01-09T00:17:49.059Z,4.00
2019-01-09T00:18:49.033Z,4.00
2019-01-09T00:19:49.022Z,4.00
2019-01-09T00:20:48.989Z,4.00
2019-01-09T00:21:48.965Z,4.00
2019-01-09T00:22:48.932Z,4.00
2019-01-09T00:23:48.920Z,4.00
2019-01-09T00:24:48.884Z,4.00
2019-01-09T00:25:48.853Z,4.00
2019-01-09T00:26:48.827Z,4.00
2019-01-09T00:27:48.811Z,4.00
2019-01-09T00:28:48.776Z,4.00
2019-01-09T00:29:48.760Z,4.00
2019-01-09T00:30:48.725Z,4.00
2019-01-09T00:31:48.696Z,4.00
2019-01-09T00:32:48.673Z,4.00
2019-01-09T00:33:48.647Z,4.00
2019-01-09T00:34:48.620Z,4.00
2019-01-09T00:35:48.595Z,4.00
2019-01-09T00:36:48.570Z,4.00
2019-01-09T00:37:48.543Z,4.00
2019-01-09T00:38:48.526Z,4.00
2019-01-09T00:39:48.494Z,4.00
2019-01-09T00:40:48.466Z,4.00
2019-01-09T00:41:48.441Z,4.00
2019-01-09T00:42:48.416Z,4.00
2019-01-09T00:43:48.397Z,4.00
2019-01-09T00:44:48.362Z,4.00
2019-01-09T00:45:48.340Z,4.00
2019-01-09T00:46:48.323Z,4.00
2019-01-09T00:47:48.298Z,4.00
2019-01-09T00:48:48.260Z,4.00
2019-01-09T00:49:48.237Z,4.00
2019-01-09T00:50:48.217Z,4.00
2019-01-09T00:51:48.182Z,4.00
2019-01-09T00:52:48.156Z,4.00
2019-01-09T00:53:48.133Z,4.00
2019-01-09T00:54:48.108Z,4.00
2019-01-09T00:55:48.078Z,4.00
2019-01-09T00:56:48.053Z,4.00
2019-01-09T00:57:48.027Z,4.00
2019-01-09T00:58:48.003Z,4.00
2019-01-09T00:59:47.976Z,4.00
2019-01-09T01:00:47.950Z,4.00
2019-01-09T01:01:47.943Z,4.00
2019-01-09T01:02:47.900Z,4.00
2019-01-09T01:03:48.484Z,4.00
2019-01-09T01:04:47.856Z,4.00
2019-01-09T01:05:47.823Z,4.00
2019-01-09T01:06:47.807Z,4.00
2019-01-09T01:07:47.771Z,4.00
2019-01-09T01:08:47.754Z,4.00
2019-01-09T01:09:47.720Z,4.00
2019-01-09T01:10:47.779Z,4.00
2019-01-09T01:11:47.666Z,4.00
2019-01-09T01:12:47.641Z,4.00
2019-01-09T01:13:47.619Z,4.00
2019-01-09T01:14:47.590Z,4.00
2019-01-09T01:15:47.562Z,4.00
2019-01-09T01:16:47.545Z,4.00
2019-01-09T01:17:47.511Z,4.00
2019-01-09T01:18:47.487Z,4.00
2019-01-09T01:19:47.465Z,4.00
2019-01-09T01:20:47.443Z,4.00
2019-01-09T01:21:47.410Z,4.00
2019-01-09T01:22:47.387Z,4.00
2019-01-09T01:23:47.356Z,4.00
2019-01-09T01:24:47.332Z,4.00
2019-01-09T01:25:47.304Z,4.00
2019-01-09T01:26:47.279Z,4.00
2019-01-09T01:27:47.252Z,4.00
2019-01-09T01:28:47.227Z,4.00
2019-01-09T01:29:47.201Z,4.00
2019-01-09T01:30:47.176Z,4.00
2019-01-09T01:31:47.152Z,4.00
2019-01-09T01:32:47.123Z,4.00
2019-01-09T01:33:47.098Z,4.00
2019-01-09T01:34:47.087Z,4.00
2019-01-09T01:35:54.481Z,4.00
2019-01-09T01:36:47.020Z,4.00
2019-01-09T01:37:47.003Z,4.00
2019-01-09T01:38:46.969Z,4.00
2019-01-09T01:41:46.917Z,4.00
2019-01-09T01:42:46.885Z,4.00
2019-01-09T01:43:46.859Z,4.00
2019-01-09T01:44:46.833Z,4.00
2019-01-09T01:45:46.813Z,4.00
2019-01-09T01:48:51.157Z,4.00
2019-01-09T01:49:31.928Z,4.00
2019-01-09T01:50:31.902Z,4.00
2019-01-09T01:51:31.878Z,4.00
2019-01-09T01:52:31.849Z,4.00
2019-01-09T01:53:31.834Z,4.00
2019-01-09T01:54:31.801Z,4.00
2019-01-09T01:55:31.773Z,4.00
2019-01-09T01:56:31.750Z,4.00
2019-01-09T01:57:31.720Z,4.00
2019-01-09T01:58:31.694Z,4.00
2019-01-09T01:59:31.669Z,4.00
2019-01-09T02:00:31.642Z,4.00
2019-01-09T02:01:31.617Z,4.00
2019-01-09T02:02:31.592Z,4.00
2019-01-09T02:03:31.565Z,4.00
2019-01-09T02:04:31.539Z,4.00
2019-01-09T02:05:31.512Z,4.00
2019-01-09T02:06:31.486Z,4.00
2019-01-09T02:07:31.461Z,4.00
2019-01-09T02:08:31.436Z,4.00
2019-01-09T02:09:31.410Z,4.00
2019-01-09T02:10:31.385Z,4.00
2019-01-09T02:11:31.357Z,4.00
2019-01-09T02:12:31.330Z,4.00
2019-01-09T02:13:31.307Z,4.00
2019-01-09T02:22:31.680Z,4.00
2019-01-09T02:22:32.627Z,4.00
2019-01-09T02:23:32.597Z,4.00
2019-01-09T02:24:32.572Z,4.00
2019-01-09T02:26:05.754Z,4.00
2019-01-09T02:26:32.522Z,4.00
2019-01-09T02:28:05.701Z,4.00
2019-01-09T02:30:17.908Z,4.00
2019-01-09T02:31:17.900Z,4.00
2019-01-09T02:32:17.858Z,4.00
2019-01-09T02:33:17.831Z,4.00
2019-01-09T02:34:17.811Z,4.00
2019-01-09T02:35:50.989Z,4.00
2019-01-09T02:36:17.753Z,4.00
2019-01-09T02:37:50.935Z,4.00
2019-01-09T02:40:36.302Z,4.00
2019-01-09T02:41:02.965Z,4.00
2019-01-09T02:42:02.939Z,4.00
2019-01-09T02:43:02.914Z,4.00
2019-01-09T02:44:36.097Z,4.00
2019-01-09T02:45:02.860Z,4.00
2019-01-09T02:46:36.055Z,4.00
2019-01-09T02:49:21.513Z,4.00
2019-01-09T02:49:48.278Z,4.00
2019-01-09T02:50:48.252Z,4.00
2019-01-09T02:51:48.226Z,4.00
2019-01-09T02:53:21.457Z,4.00
2019-01-09T02:53:48.183Z,4.00
2019-01-09T02:55:21.360Z,4.00
2019-01-09T02:58:06.827Z,4.00
2019-01-09T02:58:33.593Z,4.00
2019-01-09T03:00:06.784Z,4.00
2019-01-09T03:01:06.751Z,4.00
2019-01-09T03:01:33.513Z,4.00
2019-01-09T03:03:06.698Z,4.00
2019-01-09T03:05:51.969Z,4.00
2019-01-09T03:06:23.051Z,4.00
2019-01-09T03:09:36.905Z,4.00
2019-01-09T03:10:03.670Z,4.00
2019-01-09T03:13:22.045Z,4.00
2019-01-09T03:13:48.810Z,4.00
2019-01-09T03:17:07.183Z,4.00
2019-01-09T03:17:33.947Z,4.00
2019-01-09T03:20:52.225Z,4.00
2019-01-09T03:21:18.988Z,4.00
2019-01-09T03:24:37.365Z,4.00
2019-01-09T03:25:04.127Z,4.00
2019-01-09T04:34:27.081Z,4.00
2019-01-09T04:35:54.004Z,4.00
2019-01-09T04:38:05.851Z,4.00
2019-01-09T04:39:39.036Z,4.00
2019-01-09T04:41:51.039Z,4.00
2019-01-09T04:43:24.221Z,4.00
2019-01-09T04:45:36.025Z,4.00
2019-01-09T04:47:09.214Z,4.00
2019-01-09T04:49:21.115Z,4.00
2019-01-09T04:50:54.295Z,4.00
2019-01-09T05:28:46.504Z,4.00
2019-01-09T05:29:06.998Z,4.00
2019-01-09T05:30:06.980Z,4.00
2019-01-09T05:31:07.743Z,4.00
2019-01-09T05:32:06.922Z,4.00
2019-01-09T05:33:06.893Z,4.00
2019-01-09T05:34:06.866Z,4.00
2019-01-09T05:35:06.841Z,4.00
2019-01-09T05:36:06.815Z,4.00
2019-01-09T05:37:09.574Z,4.00
2019-01-09T05:38:06.762Z,4.00
2019-01-09T05:39:06.738Z,4.00
2019-01-09T05:40:06.726Z,4.00
2019-01-09T05:41:06.685Z,4.00
2019-01-09T05:42:06.656Z,4.00
2019-01-09T05:43:06.733Z,4.00
2019-01-09T05:44:06.605Z,4.00
2019-01-09T05:45:06.578Z,4.00
2019-01-09T05:46:06.554Z,4.00
2019-01-09T05:47:06.525Z,4.00
2019-01-09T05:48:06.499Z,4.00
2019-01-09T05:49:06.478Z,4.00
2019-01-09T05:50:06.453Z,4.00
2019-01-09T05:51:06.433Z,4.00
2019-01-09T05:52:06.395Z,4.00
2019-01-09T05:53:06.368Z,4.00
2019-01-09T05:54:06.350Z,4.00
2019-01-09T05:55:06.317Z,4.00
2019-01-09T05:56:06.289Z,4.00
2019-01-09T05:57:06.263Z,4.00
2019-01-09T05:58:06.238Z,4.00
2019-01-09T05:59:06.216Z,4.00
2019-01-09T06:00:06.185Z,4.00
2019-01-09T06:01:06.159Z,4.00
2019-01-09T06:02:06.134Z,4.00
2019-01-09T06:03:06.110Z,4.00
2019-01-09T06:04:06.081Z,4.00
2019-01-09T06:05:06.053Z,4.00
2019-01-09T06:06:06.028Z,4.00
2019-01-09T06:07:06.011Z,4.00
2019-01-09T06:08:05.978Z,4.00
2019-01-09T06:09:05.952Z,4.00
2019-01-09T06:10:05.924Z,4.00
2019-01-09T06:11:05.904Z,4.00
2019-01-09T06:12:05.875Z,4.00
2019-01-09T06:13:05.843Z,4.00
2019-01-09T06:14:05.823Z,4.00
2019-01-09T06:15:05.796Z,4.00
2019-01-09T06:16:05.764Z,4.00
2019-01-09T06:17:05.738Z,4.00
2019-01-09T06:18:05.712Z,4.00
2019-01-09T06:19:05.685Z,4.00
2019-01-09T06:20:05.661Z,4.00
2019-01-09T06:21:05.632Z,4.00
2019-01-09T06:22:05.608Z,4.00
2019-01-09T06:23:05.583Z,4.00
2019-01-09T06:24:05.553Z,4.00
2019-01-09T06:25:05.528Z,4.00
2019-01-09T06:26:05.509Z,4.00
2019-01-09T06:27:05.474Z,4.00
2019-01-09T06:28:05.455Z,4.00
2019-01-09T06:29:05.420Z,4.00
2019-01-09T06:30:05.396Z,4.00
2019-01-09T06:31:05.366Z,4.00
2019-01-09T06:32:05.342Z,4.00
2019-01-09T06:33:05.316Z,4.00
2019-01-09T06:34:05.290Z,4.00
2019-01-09T06:35:05.271Z,4.00
2019-01-09T06:36:05.237Z,4.00
2019-01-09T06:37:05.219Z,4.00
2019-01-09T06:38:05.185Z,4.00
2019-01-09T06:39:05.157Z,4.00
2019-01-09T06:40:05.130Z,4.00
2019-01-09T06:41:05.103Z,4.00
2019-01-09T06:42:05.077Z,4.00
2019-01-09T06:43:05.051Z,4.00
2019-01-09T06:44:05.025Z,4.00
2019-01-09T06:45:04.999Z,4.00
2019-01-09T06:46:04.980Z,4.00
2019-01-09T06:47:04.949Z,4.00
2019-01-09T06:48:04.926Z,4.00
2019-01-09T06:49:04.894Z,4.00
2019-01-09T06:50:04.870Z,4.00
2019-01-09T06:51:04.842Z,4.00
2019-01-09T06:52:04.816Z,4.00
2019-01-09T06:53:04.825Z,4.00
2019-01-09T06:54:04.801Z,4.00
2019-01-09T06:55:04.745Z,4.00
2019-01-09T06:56:04.758Z,8.00
2019-01-09T06:57:04.690Z,8.00
2019-01-09T06:58:04.658Z,8.00
2019-01-09T06:59:04.648Z,8.00
2019-01-09T07:00:04.609Z,4.00
2019-01-09T07:01:04.588Z,4.00
2019-01-09T07:02:04.563Z,4.00
2019-01-09T07:03:04.530Z,4.00
2019-01-09T07:04:04.514Z,8.00
2019-01-09T07:05:04.477Z,8.00
2019-01-09T07:06:04.457Z,8.00
2019-01-09T07:07:04.422Z,8.00
2019-01-09T07:08:04.406Z,12.00
2019-01-09T07:09:04.370Z,12.00
2019-01-09T07:10:04.345Z,12.00
2019-01-09T07:11:04.319Z,16.00
2019-01-09T07:12:04.293Z,20.00
2019-01-09T07:13:04.267Z,24.00
2019-01-09T07:14:04.240Z,28.00
2019-01-09T07:15:11.483Z,28.00
2019-01-09T07:16:04.188Z,36.00
2019-01-09T07:17:04.162Z,36.00
2019-01-09T07:18:04.135Z,40.00
2019-01-09T07:19:04.122Z,44.00
2019-01-09T07:20:04.082Z,52.00
2019-01-09T07:21:04.056Z,60.00
2019-01-09T07:22:04.031Z,64.00
2019-01-09T07:23:04.005Z,72.00
2019-01-09T07:24:03.986Z,80.00
2019-01-09T07:25:03.958Z,92.00
2019-01-09T07:26:03.927Z,100.00
2019-01-09T07:27:03.901Z,112.00
2019-01-09T07:28:03.926Z,120.00
2019-01-09T07:29:03.867Z,132.00
2019-01-09T07:30:03.820Z,148.00
2019-01-09T07:31:03.794Z,160.00
2019-01-09T07:32:03.775Z,176.00
2019-01-09T07:33:03.740Z,188.00
2019-01-09T07:34:03.728Z,204.00
2019-01-09T07:35:03.690Z,224.00
2019-01-09T07:36:03.662Z,236.00
2019-01-09T07:37:03.635Z,256.00
2019-01-09T07:38:03.617Z,276.00
2019-01-09T07:39:03.599Z,296.00
2019-01-09T07:40:03.559Z,324.00
2019-01-09T07:41:03.532Z,348.00
2019-01-09T07:42:03.516Z,368.00
2019-01-09T07:43:03.482Z,392.00
2019-01-09T07:44:03.452Z,420.00
2019-01-09T07:45:03.422Z,444.00
2019-01-09T07:46:03.404Z,468.00
2019-01-09T07:47:03.380Z,492.00
2019-01-09T07:48:03.346Z,516.00
2019-01-09T07:49:03.360Z,552.00
2019-01-09T07:50:03.291Z,580.00
2019-01-09T07:51:03.272Z,612.00
2019-01-09T07:52:03.246Z,644.00
2019-01-09T07:53:03.211Z,676.00
2019-01-09T07:54:03.185Z,704.00
2019-01-09T07:55:03.165Z,732.00
2019-01-09T07:56:03.137Z,760.00
2019-01-09T07:57:03.104Z,792.00
2019-01-09T07:58:03.077Z,820.00
2019-01-09T07:59:03.051Z,848.00
2019-01-09T08:00:03.026Z,876.00
2019-01-09T08:01:03.005Z,904.00
2019-01-09T08:02:02.971Z,936.00
2019-01-09T08:03:02.950Z,964.00
2019-01-09T08:04:02.927Z,996.00
2019-01-09T08:05:02.892Z,1036.00
2019-01-09T08:06:02.865Z,1092.00
2019-01-09T08:07:02.843Z,1188.00
2019-01-09T08:08:02.819Z,1244.00
2019-01-09T08:09:02.851Z,1212.00
2019-01-09T08:10:02.766Z,1224.00
2019-01-09T08:11:02.735Z,1284.00
2019-01-09T08:12:02.703Z,1404.00
2019-01-09T08:13:02.683Z,1572.00
2019-01-09T08:14:02.650Z,1704.00
2019-01-09T08:15:02.628Z,1724.00
2019-01-09T08:16:02.629Z,1856.00
2019-01-09T08:17:02.569Z,2140.00
2019-01-09T08:18:02.544Z,2092.00
2019-01-09T08:19:02.526Z,2044.00
2019-01-09T08:20:02.496Z,1848.00
2019-01-09T08:21:05.551Z,1712.00
2019-01-09T08:22:02.451Z,1848.00
2019-01-09T08:23:02.410Z,1876.00
2019-01-09T08:24:02.390Z,1724.00
2019-01-09T08:25:02.359Z,1680.00
2019-01-09T08:26:02.335Z,1664.00
2019-01-09T08:27:02.313Z,1660.00
2019-01-09T08:28:02.340Z,1752.00
2019-01-09T08:29:02.254Z,1960.00
2019-01-09T08:30:02.230Z,2052.00
2019-01-09T08:31:02.209Z,2348.00
2019-01-09T08:32:02.178Z,2708.00
2019-01-09T08:33:02.151Z,3288.00
2019-01-09T08:34:02.132Z,3440.00
2019-01-09T08:35:02.096Z,3420.00
2019-01-09T08:36:02.068Z,2884.00
2019-01-09T08:37:02.052Z,2572.00
2019-01-09T08:38:02.939Z,2656.00
2019-01-09T08:39:01.994Z,4156.00
2019-01-09T08:40:01.962Z,4016.00
2019-01-09T08:41:01.939Z,3776.00
2019-01-09T08:42:01.910Z,3392.00
2019-01-09T08:43:01.885Z,2972.00
2019-01-09T08:44:01.861Z,2932.00
2019-01-09T08:45:01.836Z,3096.00
2019-01-09T08:46:01.805Z,3224.00
2019-01-09T08:47:01.780Z,3100.00
2019-01-09T08:48:01.771Z,3084.00
2019-01-09T08:49:01.729Z,3188.00
2019-01-09T08:50:01.705Z,3888.00
2019-01-09T08:51:01.727Z,3980.00
2019-01-09T08:52:01.660Z,3832.00
2019-01-09T08:53:01.633Z,3532.00
2019-01-09T08:54:01.602Z,3816.00
2019-01-09T08:55:01.581Z,4104.00
2019-01-09T08:56:01.548Z,4056.00
2019-01-09T08:57:01.522Z,3800.00
2019-01-09T08:58:01.497Z,3960.00
2019-01-09T08:59:01.473Z,4040.00
2019-01-09T09:00:01.452Z,4344.00
2019-01-09T09:01:01.428Z,4308.00
2019-01-09T09:02:01.393Z,4884.00
2019-01-09T09:03:01.368Z,5160.00
2019-01-09T09:04:01.344Z,5264.00
2019-01-09T09:05:01.321Z,4528.00
2019-01-09T09:06:01.291Z,5100.00
2019-01-09T09:07:01.277Z,5108.00
2019-01-09T09:08:01.249Z,4656.00
2019-01-09T09:09:01.223Z,4232.00
2019-01-09T09:10:01.199Z,4188.00
2019-01-09T09:11:01.163Z,4176.00
2019-01-09T09:12:01.152Z,3876.00
2019-01-09T09:13:01.112Z,3840.00
2019-01-09T09:14:01.090Z,3792.00
2019-01-09T09:15:01.224Z,4084.00
2019-01-09T09:16:01.051Z,4436.00
2019-01-09T09:17:01.017Z,4596.00
2019-01-09T09:18:01.160Z,4652.00
2019-01-09T09:19:00.979Z,4480.00
2019-01-09T09:20:00.936Z,5040.00
2019-01-09T09:21:00.910Z,4732.00
2019-01-09T09:22:00.884Z,3980.00
2019-01-09T09:23:00.867Z,3520.00
2019-01-09T09:24:00.839Z,3188.00
2019-01-09T09:25:00.809Z,3112.00
2019-01-09T09:26:00.800Z,3060.00
2019-01-09T09:27:00.758Z,3100.00
2019-01-09T09:28:00.734Z,3116.00
2019-01-09T09:29:00.709Z,3096.00
2019-01-09T09:30:00.685Z,3060.00
2019-01-09T09:31:00.665Z,3056.00
2019-01-09T09:32:00.648Z,3076.00
2019-01-09T09:33:00.607Z,3164.00
2019-01-09T09:34:00.579Z,3284.00
2019-01-09T09:35:00.555Z,3252.00
2019-01-09T09:36:00.530Z,3236.00
2019-01-09T09:37:00.504Z,3232.00
2019-01-09T09:38:00.479Z,3248.00
2019-01-09T09:39:00.458Z,3260.00
2019-01-09T09:40:00.446Z,3264.00
2019-01-09T09:41:00.419Z,3268.00
2019-01-09T09:42:00.386Z,3272.00
2019-01-09T09:43:00.404Z,3292.00
2019-01-09T09:44:00.327Z,3316.00
2019-01-09T09:45:00.300Z,3344.00
2019-01-09T09:46:00.341Z,3356.00
2019-01-09T09:47:00.248Z,3364.00
2019-01-09T09:48:00.232Z,3368.00
2019-01-09T09:49:00.203Z,3376.00
2019-01-09T09:50:00.287Z,3392.00
2019-01-09T09:51:00.145Z,3404.00
2019-01-09T09:52:00.124Z,3432.00
2019-01-09T09:53:00.102Z,3464.00
2019-01-09T09:54:00.069Z,3504.00
2019-01-09T09:55:00.049Z,3532.00
2019-01-09T09:56:00.018Z,3544.00
2019-01-09T09:56:59.996Z,3628.00
2019-01-09T09:58:05.666Z,3644.00
2019-01-09T09:58:59.940Z,3616.00
2019-01-09T09:59:59.920Z,3640.00
2019-01-09T10:00:59.889Z,3668.00
2019-01-09T10:01:59.864Z,3664.00
2019-01-09T10:02:59.838Z,3652.00
2019-01-09T10:03:59.814Z,3680.00
2019-01-09T10:04:59.786Z,3720.00
2019-01-09T10:05:59.761Z,3756.00
2019-01-09T10:06:59.740Z,3780.00
2019-01-09T10:07:59.714Z,3808.00
2019-01-09T10:08:59.680Z,3908.00
2019-01-09T10:09:59.654Z,4020.00
2019-01-09T10:10:59.635Z,4324.00
2019-01-09T10:11:59.614Z,4492.00
2019-01-09T10:12:59.578Z,4196.00
2019-01-09T10:13:59.551Z,4132.00
2019-01-09T10:14:59.526Z,4104.00
2019-01-09T10:15:59.511Z,4112.00
2019-01-09T10:16:59.481Z,4132.00
2019-01-09T10:17:59.449Z,4296.00
2019-01-09T10:18:59.432Z,4324.00
2019-01-09T10:19:59.398Z,4476.00
2019-01-09T10:20:59.373Z,4308.00
2019-01-09T10:21:59.357Z,4456.00
2019-01-09T10:22:59.319Z,4720.00
2019-01-09T10:23:59.301Z,4752.00
2019-01-09T10:24:59.270Z,5236.00
2019-01-09T10:25:59.244Z,5420.00
2019-01-09T10:26:59.232Z,6172.00
2019-01-09T10:27:59.193Z,5820.00
2019-01-09T10:28:59.166Z,5124.00
2019-01-09T10:29:59.148Z,6056.00
2019-01-09T10:30:59.121Z,5904.00
2019-01-09T10:31:59.298Z,6088.00
2019-01-09T10:32:59.064Z,5028.00
2019-01-09T10:33:59.045Z,4668.00
2019-01-09T10:34:59.022Z,5324.00
2019-01-09T10:35:58.988Z,4816.00
2019-01-09T10:36:58.965Z,4720.00
2019-01-09T10:37:58.936Z,4644.00
2019-01-09T10:38:58.916Z,5244.00
2019-01-09T10:39:58.886Z,6148.00
2019-01-09T10:40:58.875Z,6280.00
2019-01-09T10:41:58.844Z,8000.00
2019-01-09T10:42:58.809Z,7420.00
2019-01-09T10:43:58.794Z,6156.00
2019-01-09T10:44:58.759Z,8020.00
2019-01-09T10:45:58.738Z,8720.00
2019-01-09T10:46:58.718Z,7600.00
2019-01-09T10:47:58.691Z,6388.00
2019-01-09T10:48:58.658Z,7532.00
2019-01-09T10:49:58.636Z,6024.00
2019-01-09T10:50:58.619Z,8972.00
2019-01-09T10:51:58.586Z,7392.00
2019-01-09T10:52:58.560Z,9240.00
2019-01-09T10:54:00.599Z,10984.00
2019-01-09T10:54:58.513Z,8328.00
2019-01-09T10:55:58.494Z,7968.00
2019-01-09T10:56:58.480Z,7332.00
2019-01-09T10:57:58.439Z,8404.00
2019-01-09T10:58:58.414Z,7784.00
2019-01-09T10:59:58.397Z,5528.00
2019-01-09T11:00:58.520Z,7224.00
2019-01-09T11:01:58.348Z,8468.00
2019-01-09T11:02:58.315Z,5840.00
2019-01-09T11:03:58.296Z,9000.00
2019-01-09T11:04:58.270Z,8192.00
2019-01-09T11:05:58.242Z,8116.00
2019-01-09T11:06:58.219Z,8248.00
2019-01-09T11:07:58.194Z,7012.00
2019-01-09T11:08:58.178Z,7412.00
2019-01-09T11:09:58.157Z,7332.00
2019-01-09T11:10:58.124Z,5884.00
2019-01-09T11:11:58.100Z,5168.00
2019-01-09T11:12:58.084Z,5212.00
2019-01-09T11:13:58.051Z,6736.00
2019-01-09T11:14:58.026Z,6984.00
2019-01-09T11:15:58.003Z,7808.00
2019-01-09T11:16:57.977Z,6936.00
2019-01-09T11:17:57.954Z,5324.00
2019-01-09T11:18:57.942Z,5196.00
2019-01-09T11:19:57.915Z,5964.00
2019-01-09T11:20:57.882Z,7080.00
2019-01-09T11:21:57.860Z,5408.00
2019-01-09T11:22:57.836Z,6064.00
2019-01-09T11:23:57.809Z,5960.00
2019-01-09T11:24:57.783Z,6700.00
2019-01-09T11:25:57.762Z,7908.00
2019-01-09T11:26:57.738Z,8232.00
2019-01-09T11:27:57.723Z,7296.00
2019-01-09T11:28:57.690Z,7564.00
2019-01-09T11:29:57.682Z,6896.00
2019-01-09T11:30:57.645Z,7308.00
2019-01-09T11:31:57.620Z,6740.00
2019-01-09T11:32:57.594Z,7284.00
2019-01-09T11:33:57.570Z,6616.00
2019-01-09T11:34:57.549Z,4872.00
2019-01-09T11:35:57.527Z,4424.00
2019-01-09T11:36:57.597Z,6684.00
2019-01-09T11:37:57.489Z,7224.00
2019-01-09T11:38:57.448Z,5120.00
2019-01-09T11:39:57.429Z,4456.00
2019-01-09T11:40:57.399Z,5560.00
2019-01-09T11:41:57.384Z,6884.00
2019-01-09T11:42:57.358Z,5560.00
2019-01-09T11:43:57.326Z,5588.00
2019-01-09T11:44:57.302Z,7232.00
2019-01-09T11:45:57.279Z,7416.00
2019-01-09T11:46:57.254Z,5792.00
2019-01-09T11:47:57.231Z,6252.00
2019-01-09T11:48:57.205Z,7832.00
2019-01-09T11:49:57.182Z,7592.00
2019-01-09T11:50:57.166Z,6804.00
2019-01-09T11:51:57.150Z,6080.00
2019-01-09T11:52:57.111Z,5936.00
2019-01-09T11:53:57.086Z,6424.00
2019-01-09T11:54:57.063Z,5964.00
2019-01-09T11:55:57.039Z,4192.00
2019-01-09T11:56:57.031Z,3868.00
2019-01-09T11:57:56.989Z,5208.00
2019-01-09T11:58:56.966Z,7808.00
2019-01-09T11:59:56.944Z,7640.00
2019-01-09T12:00:56.919Z,5968.00
2019-01-09T12:01:56.904Z,6180.00
2019-01-09T12:02:56.882Z,6284.00
2019-01-09T12:03:56.846Z,4656.00
2019-01-09T12:04:56.823Z,3324.00
2019-01-09T12:05:56.805Z,3452.00
2019-01-09T12:06:56.782Z,5460.00
2019-01-09T12:07:56.754Z,6556.00
2019-01-09T12:09:04.271Z,7020.00
2019-01-09T12:09:56.701Z,7432.00
2019-01-09T12:10:56.725Z,5208.00
2019-01-09T12:11:56.654Z,4976.00
2019-01-09T12:12:56.628Z,8948.00
2019-01-09T12:13:56.606Z,6068.00
2019-01-09T12:14:56.587Z,6860.00
2019-01-09T12:15:56.565Z,5464.00
2019-01-09T12:16:56.532Z,5552.00
2019-01-09T12:17:56.511Z,6052.00
2019-01-09T12:18:56.490Z,6024.00
2019-01-09T12:19:56.463Z,7028.00
2019-01-09T12:20:56.436Z,7636.00
2019-01-09T12:21:56.423Z,6360.00
2019-01-09T12:22:56.392Z,5592.00
2019-01-09T12:23:56.366Z,4760.00
2019-01-09T12:24:56.347Z,4712.00
2019-01-09T12:25:56.315Z,5216.00
2019-01-09T12:26:56.301Z,5728.00
2019-01-09T12:27:56.277Z,5256.00
2019-01-09T12:28:56.251Z,5688.00
2019-01-09T12:29:56.220Z,6364.00
2019-01-09T12:30:56.195Z,7036.00
2019-01-09T12:31:56.179Z,7320.00
2019-01-09T12:32:56.149Z,6644.00
2019-01-09T12:33:56.133Z,5216.00
2019-01-09T12:34:56.111Z,4208.00
2019-01-09T12:35:56.082Z,3924.00
2019-01-09T12:36:56.050Z,4060.00
2019-01-09T12:37:56.136Z,3976.00
2019-01-09T12:38:56.002Z,4124.00
2019-01-09T12:39:55.987Z,4532.00
2019-01-09T12:40:55.955Z,4876.00
2019-01-09T12:41:55.936Z,4348.00
2019-01-09T12:42:55.918Z,4224.00
2019-01-09T12:43:55.893Z,5228.00
2019-01-09T12:44:55.859Z,4996.00
2019-01-09T12:45:55.833Z,4472.00
2019-01-09T12:46:55.809Z,4140.00
2019-01-09T12:47:55.788Z,4116.00
2019-01-09T12:48:55.759Z,4552.00
2019-01-09T12:49:55.737Z,4272.00
2019-01-09T12:50:55.713Z,3700.00
2019-01-09T12:51:55.697Z,3520.00
2019-01-09T12:52:55.666Z,3664.00
2019-01-09T12:53:55.642Z,3496.00
2019-01-09T12:54:55.617Z,3428.00
2019-01-09T12:55:55.592Z,3216.00
2019-01-09T12:56:55.565Z,2972.00
2019-01-09T12:57:55.543Z,3272.00
2019-01-09T12:58:55.517Z,3508.00
2019-01-09T12:59:55.512Z,3616.00
2019-01-09T13:00:55.476Z,3336.00
2019-01-09T13:01:55.444Z,3388.00
2019-01-09T13:02:55.436Z,3884.00
2019-01-09T13:03:55.411Z,3820.00
2019-01-09T13:04:55.371Z,3188.00
2019-01-09T13:05:55.347Z,3104.00
2019-01-09T13:06:55.328Z,3224.00
2019-01-09T13:07:55.312Z,3220.00
2019-01-09T13:08:55.274Z,3404.00
2019-01-09T13:09:55.254Z,4228.00
2019-01-09T13:10:55.226Z,4840.00
2019-01-09T13:11:55.201Z,5668.00
2019-01-09T13:12:55.186Z,5104.00
2019-01-09T13:13:55.151Z,3820.00
2019-01-09T13:14:55.143Z,3436.00
2019-01-09T13:15:55.108Z,3844.00
2019-01-09T13:16:55.133Z,3952.00
2019-01-09T13:17:55.064Z,4016.00
2019-01-09T13:18:55.035Z,4352.00
2019-01-09T13:19:55.011Z,5776.00
2019-01-09T13:20:54.979Z,5084.00
2019-01-09T13:21:54.971Z,5208.00
2019-01-09T13:22:54.934Z,5944.00
2019-01-09T13:23:54.924Z,4776.00
2019-01-09T13:24:54.885Z,3448.00
2019-01-09T13:25:54.858Z,3088.00
2019-01-09T13:26:54.836Z,3204.00
2019-01-09T13:27:54.819Z,3716.00
2019-01-09T13:28:54.785Z,4820.00
2019-01-09T13:29:54.761Z,5092.00
2019-01-09T13:30:54.752Z,4276.00
2019-01-09T13:31:54.714Z,2808.00
2019-01-09T13:32:54.690Z,2340.00
2019-01-09T13:33:54.672Z,2708.00
2019-01-09T13:34:54.638Z,3724.00
2019-01-09T13:35:54.623Z,4576.00
2019-01-09T13:36:54.591Z,4224.00
2019-01-09T13:37:54.565Z,3608.00
2019-01-09T13:38:54.542Z,3516.00
2019-01-09T13:39:54.659Z,3792.00
2019-01-09T13:40:54.511Z,3628.00
2019-01-09T13:41:54.470Z,3412.00
2019-01-09T13:42:54.461Z,3540.00
2019-01-09T13:43:54.421Z,3656.00
2019-01-09T13:44:54.408Z,4020.00
2019-01-09T13:45:54.393Z,3808.00
2019-01-09T13:46:54.347Z,3296.00
2019-01-09T13:47:54.332Z,2752.00
2019-01-09T13:48:54.314Z,2504.00
2019-01-09T13:49:54.287Z,2492.00
2019-01-09T13:50:54.251Z,2844.00
2019-01-09T13:51:54.237Z,3384.00
2019-01-09T13:52:54.208Z,3316.00
2019-01-09T13:53:54.186Z,3700.00
2019-01-09T13:54:54.168Z,4104.00
2019-01-09T13:55:54.129Z,3772.00
2019-01-09T13:56:54.118Z,3116.00
2019-01-09T13:57:54.078Z,2732.00
2019-01-09T13:58:54.054Z,2520.00
2019-01-09T13:59:54.033Z,2324.00
2019-01-09T14:00:54.005Z,2316.00
2019-01-09T14:01:53.990Z,2820.00
2019-01-09T14:02:53.961Z,3408.00
2019-01-09T14:03:53.932Z,3092.00
2019-01-09T14:04:53.907Z,3080.00
2019-01-09T14:05:53.885Z,3324.00
2019-01-09T14:06:53.861Z,3276.00
2019-01-09T14:07:53.834Z,3392.00
2019-01-09T14:08:53.824Z,3608.00
2019-01-09T14:09:53.792Z,3684.00
2019-01-09T14:10:53.760Z,3344.00
2019-01-09T14:11:53.743Z,3100.00
2019-01-09T14:12:53.713Z,2816.00
2019-01-09T14:13:53.688Z,2784.00
2019-01-09T14:14:53.662Z,2624.00
2019-01-09T14:15:53.637Z,2288.00
2019-01-09T14:16:53.622Z,2388.00
2019-01-09T14:17:53.618Z,2640.00
2019-01-09T14:18:55.295Z,2596.00
2019-01-09T14:19:53.542Z,2484.00
2019-01-09T14:20:53.516Z,2696.00
2019-01-09T14:21:53.498Z,2604.00
2019-01-09T14:22:53.466Z,2256.00
2019-01-09T14:23:53.444Z,2048.00
2019-01-09T14:24:53.420Z,1936.00
2019-01-09T14:25:53.393Z,1856.00
2019-01-09T14:26:53.367Z,1760.00
2019-01-09T14:27:53.342Z,1704.00
2019-01-09T14:28:53.324Z,1704.00
2019-01-09T14:29:53.299Z,1736.00
2019-01-09T14:30:53.278Z,1700.00
2019-01-09T14:31:53.244Z,1724.00
2019-01-09T14:32:53.227Z,1656.00
2019-01-09T14:33:53.194Z,1548.00
2019-01-09T14:34:53.177Z,1548.00
2019-01-09T14:35:53.145Z,1596.00
2019-01-09T14:36:53.124Z,1688.00
2019-01-09T14:37:53.095Z,1792.00
2019-01-09T14:38:53.070Z,2092.00
2019-01-09T14:39:53.052Z,1992.00
2019-01-09T14:40:53.025Z,2008.00
2019-01-09T14:41:53.003Z,1952.00
2019-01-09T14:42:52.971Z,1876.00
2019-01-09T14:43:52.952Z,1932.00
2019-01-09T14:44:52.937Z,1964.00
2019-01-09T14:45:52.903Z,1736.00
2019-01-09T14:46:52.884Z,1520.00
2019-01-09T14:47:52.848Z,1500.00
2019-01-09T14:48:52.820Z,1672.00
2019-01-09T14:49:52.799Z,1776.00
2019-01-09T14:50:52.779Z,1508.00
2019-01-09T14:51:52.745Z,1488.00
2019-01-09T14:52:52.734Z,1512.00
2019-01-09T14:53:52.698Z,1544.00
2019-01-09T14:54:52.671Z,1500.00